Time;durP1;ratioP1;P1;durP2;ratioP2;P2;SDS_P1;SDS_P2;PMS_P1;PMS_P2;Temp;Humidity;BMP_temperature;BMP_pressure;BME280_temperature;BME280_humidity;BME280_pressure;Samples;Min_cycle;Max_cycle;Signal;HPM_P1;HPM_P2
2023/01/15 00:02:17;;;;;;;1.63;1.53;;;;;;;8.26;100.00;95865.13;5071063;28;20582;-59
2023/01/15 00:04:45;;;;;;;2.10;1.90;;;;;;;8.33;100.00;95859.13;5070848;28;20535;-59
2023/01/15 00:07:11;;;;;;;1.90;1.77;;;;;;;8.38;100.00;95867.44;5071114;28;20190;-58
2023/01/15 00:09:38;;;;;;;1.63;1.50;;;;;;;8.42;100.00;95860.06;5070956;28;20201;-59
2023/01/15 00:12:05;;;;;;;1.40;1.30;;;;;;;8.51;97.61;95861.78;5071105;28;20230;-59
2023/01/15 00:14:31;;;;;;;1.40;1.30;;;;;;;8.61;90.67;95848.56;5070831;28;20206;-59
2023/01/15 00:16:57;;;;;;;1.10;1.00;;;;;;;8.75;86.64;95843.56;5070822;28;20219;-59
2023/01/15 00:19:24;;;;;;;1.17;0.90;;;;;;;8.87;81.80;95841.53;5070901;28;20445;-59
2023/01/15 00:21:52;;;;;;;2.03;1.03;;;;;;;8.95;82.07;95844.25;5070880;28;20638;-59
2023/01/15 00:29:47;;;;;;;1.43;1.10;;;;;;;9.28;75.33;95840.06;5070039;28;20217;-61
2023/01/15 00:32:14;;;;;;;1.40;1.10;;;;;;;9.39;74.23;95843.25;5070474;28;20267;-60
2023/01/15 00:34:40;;;;;;;1.37;0.80;;;;;;;9.46;73.03;95830.25;5069938;28;20206;-58
2023/01/15 00:37:08;;;;;;;2.63;0.90;;;;;;;9.54;73.13;95834.75;5070877;28;20206;-60
2023/01/15 00:39:35;;;;;;;1.97;1.30;;;;;;;9.66;71.24;95829.06;5070068;28;20202;-60
2023/01/15 00:42:01;;;;;;;1.40;1.00;;;;;;;9.73;69.33;95829.25;5070439;28;20202;-59
2023/01/15 00:44:28;;;;;;;0.80;0.80;;;;;;;9.85;67.30;95818.25;5069661;28;20202;-59
2023/01/15 00:46:54;;;;;;;0.97;0.87;;;;;;;10.08;65.44;95813.22;5070398;28;20198;-62
2023/01/15 00:49:21;;;;;;;3.13;1.17;;;;;;;10.30;63.88;95817.13;5070081;28;20214;-61
2023/01/15 00:51:48;;;;;;;0.77;0.77;;;;;;;10.61;63.09;95810.25;5070271;28;20226;-60
2023/01/15 00:54:16;;;;;;;0.90;0.90;;;;;;;10.54;64.81;95816.34;5069285;28;20210;-61
2023/01/15 00:56:43;;;;;;;0.63;0.63;;;;;;;10.55;63.02;95810.91;5070297;28;20233;-60
2023/01/15 00:59:09;;;;;;;0.80;0.80;;;;;;;10.61;63.39;95831.41;5069872;28;20234;-58
2023/01/15 01:01:36;;;;;;;1.00;0.90;;;;;;;10.58;64.71;95821.16;5069886;28;20229;-59
2023/01/15 01:04:03;;;;;;;1.00;0.90;;;;;;;10.63;63.16;95813.53;5069719;28;20217;-59
2023/01/15 01:06:29;;;;;;;0.87;0.70;;;;;;;10.69;63.70;95807.63;5070291;28;20210;-59
2023/01/15 01:08:56;;;;;;;0.90;0.90;;;;;;;10.75;62.88;95804.31;5069548;28;20207;-61
2023/01/15 01:11:27;;;;;;;1.60;0.70;;;;;;;10.74;63.32;95804.47;5070869;28;20226;-60
2023/01/15 01:13:54;;;;;;;1.60;0.70;;;;;;;10.71;64.92;95805.63;5070499;28;20256;-61
2023/01/15 01:16:26;;;;;;;0.80;0.80;;;;;;;10.73;65.41;95801.03;5072749;28;20217;-59
2023/01/15 01:18:53;;;;;;;0.80;0.80;;;;;;;10.70;65.06;95793.38;5074236;28;20214;-58
2023/01/15 01:21:20;;;;;;;0.97;0.90;;;;;;;10.75;65.78;95796.38;5074109;28;20231;-60
2023/01/15 01:23:47;;;;;;;1.67;0.80;;;;;;;10.80;64.30;95799.38;5073880;28;20298;-60
2023/01/15 01:26:14;;;;;;;1.00;0.80;;;;;;;10.77;65.13;95807.59;5073608;28;20206;-60
2023/01/15 01:28:42;;;;;;;0.80;0.80;;;;;;;10.73;66.47;95803.66;5073885;28;20202;-58
2023/01/15 01:31:09;;;;;;;1.03;0.70;;;;;;;10.81;65.25;95814.22;5074006;28;20225;-58
2023/01/15 01:33:35;;;;;;;0.60;0.60;;;;;;;10.74;66.47;95805.28;5073528;28;20210;-59
2023/01/15 01:36:02;;;;;;;1.93;0.70;;;;;;;10.80;66.01;95804.66;5073950;28;20206;-62
2023/01/15 01:38:29;;;;;;;0.63;0.63;;;;;;;10.75;67.02;95801.66;5073804;28;20221;-59
2023/01/15 01:40:55;;;;;;;0.57;0.57;;;;;;;10.79;66.64;95800.34;5073183;28;20233;-60
2023/01/15 01:43:23;;;;;;;1.20;0.77;;;;;;;10.72;67.78;95804.66;5073996;28;20217;-58
2023/01/15 01:45:51;;;;;;;0.93;0.90;;;;;;;10.81;67.66;95801.00;5073357;28;20209;-60
2023/01/15 01:48:20;;;;;;;0.80;0.80;;;;;;;10.80;67.94;95809.94;5072965;28;20194;-59
2023/01/15 01:50:48;;;;;;;0.70;0.63;;;;;;;10.67;68.84;95809.59;5073166;28;20652;-60
2023/01/15 01:53:17;;;;;;;1.37;0.80;;;;;;;10.66;70.06;95797.38;5073888;28;20211;-59
2023/01/15 01:55:43;;;;;;;0.77;0.67;;;;;;;10.63;70.17;95808.25;5072861;28;20214;-60
2023/01/15 01:58:10;;;;;;;0.70;0.70;;;;;;;10.57;71.04;95798.34;5073619;28;20201;-58
2023/01/15 02:00:38;;;;;;;0.87;0.70;;;;;;;10.63;70.30;95797.69;5073064;28;20242;-60
2023/01/15 02:03:08;;;;;;;0.50;0.50;;;;;;;10.62;70.89;95798.69;5073686;28;20229;-61
2023/01/15 02:05:37;;;;;;;0.70;0.70;;;;;;;10.66;70.95;95800.03;5091593;28;20552;-61
2023/01/15 02:08:05;;;;;;;0.73;0.60;;;;;;;10.59;71.89;95801.66;5093264;28;20207;-61
2023/01/15 02:10:31;;;;;;;0.70;0.70;;;;;;;10.59;72.50;95795.56;5090356;28;20909;-60
2023/01/15 02:13:03;;;;;;;1.53;0.70;;;;;;;10.56;73.19;95780.81;5085555;28;20219;-58
2023/01/15 02:15:33;;;;;;;0.77;0.40;;;;;;;10.45;73.07;95766.09;5075413;28;20240;-58
2023/01/15 02:18:08;;;;;;;0.53;0.53;;;;;;;10.41;73.99;95772.72;5074060;28;20211;-60
2023/01/15 02:20:38;;;;;;;1.13;0.60;;;;;;;10.30;75.16;95759.00;5073582;28;20205;-60
2023/01/15 02:23:23;;;;;;;0.80;0.70;;;;;;;10.28;75.19;95763.59;5073113;28;20198;-60
2023/01/15 02:26:20;;;;;;;1.43;0.87;;;;;;;10.33;75.48;95775.34;5072971;28;20210;-59
2023/01/15 02:28:52;;;;;;;0.70;0.70;;;;;;;10.26;76.79;95762.94;5072598;28;20206;-58
2023/01/15 02:31:21;;;;;;;0.80;0.80;;;;;;;10.23;77.09;95758.00;5073214;28;20211;-59
2023/01/15 02:33:51;;;;;;;1.43;0.90;;;;;;;10.19;77.69;95752.22;5072822;28;20647;-59
2023/01/15 02:36:19;;;;;;;1.20;0.90;;;;;;;10.24;77.41;95755.19;5072542;28;20198;-58
2023/01/15 02:38:48;;;;;;;1.40;0.53;;;;;;;10.29;77.26;95752.06;5072963;28;20198;-60
2023/01/15 02:41:16;;;;;;;0.70;0.70;;;;;;;10.17;78.78;95745.41;5072305;28;20863;-60
2023/01/15 02:43:46;;;;;;;0.70;0.70;;;;;;;10.16;78.48;95746.44;5073036;28;20299;-61
2023/01/15 02:46:15;;;;;;;0.60;0.60;;;;;;;10.12;78.82;95745.88;5072817;28;21037;-63
2023/01/15 02:48:45;;;;;;;0.97;0.70;;;;;;;10.12;79.75;95743.25;5073152;28;20199;-58
2023/01/15 02:51:12;;;;;;;0.60;0.60;;;;;;;10.06;80.44;95733.31;5072332;28;20233;-60
2023/01/15 02:53:42;;;;;;;1.07;0.50;;;;;;;9.99;80.91;95748.16;5072958;28;20207;-61
2023/01/15 02:56:10;;;;;;;1.00;0.60;;;;;;;10.01;81.52;95746.19;5072845;28;20210;-60
2023/01/15 02:58:38;;;;;;;0.47;0.47;;;;;;;9.97;81.70;95748.31;5072338;28;20195;-60
2023/01/15 03:01:10;;;;;;;0.70;0.70;;;;;;;9.93;82.68;95747.00;5072164;28;20238;-60
2023/01/15 03:03:42;;;;;;;1.40;0.90;;;;;;;9.88;82.90;95738.72;5072537;28;20207;-60
2023/01/15 03:06:11;;;;;;;1.33;0.60;;;;;;;9.88;83.25;95714.16;5072098;28;20244;-58
2023/01/15 03:08:38;;;;;;;0.70;0.70;;;;;;;9.93;83.71;95720.59;5072479;28;20202;-60
2023/01/15 03:11:08;;;;;;;0.90;0.77;;;;;;;9.85;84.08;95712.63;5072318;28;20210;-60
2023/01/15 03:13:41;;;;;;;0.73;0.73;;;;;;;9.92;84.30;95711.00;5074915;28;20212;-61
2023/01/15 03:19:02;;;;;;;0.60;0.60;;;;;;;9.90;85.70;95707.72;5079757;28;20285;-60
2023/01/15 03:21:32;;;;;;;0.80;0.60;;;;;;;9.88;85.98;95712.31;5078279;28;20199;-60
2023/01/15 03:24:01;;;;;;;1.73;0.90;;;;;;;9.85;86.24;95702.06;5080418;28;20214;-60
2023/01/15 03:26:28;;;;;;;0.60;0.57;;;;;;;9.92;86.66;95711.00;5079952;28;20630;-58
2023/01/15 03:28:55;;;;;;;0.60;0.60;;;;;;;9.83;87.11;95698.78;5080284;28;20209;-60
2023/01/15 03:31:22;;;;;;;0.83;0.80;;;;;;;9.77;88.63;95710.00;5071460;28;22459;-58
2023/01/15 03:33:48;;;;;;;2.17;0.60;;;;;;;9.80;88.57;95706.19;5071647;28;20198;-58
2023/01/15 03:36:16;;;;;;;0.60;0.60;;;;;;;9.74;88.77;95705.00;5071070;28;20213;-58
2023/01/15 03:38:46;;;;;;;1.63;0.90;;;;;;;9.79;89.07;95696.59;5070925;28;20202;-58
2023/01/15 03:41:19;;;;;;;0.90;0.77;;;;;;;9.80;89.23;95707.03;5070894;28;20198;-60
2023/01/15 03:43:53;;;;;;;0.60;0.60;;;;;;;9.88;89.75;95700.94;5071200;28;20230;-58
2023/01/15 03:46:30;;;;;;;1.07;0.97;;;;;;;9.84;90.08;95702.25;5071418;28;20213;-59
2023/01/15 03:49:01;;;;;;;1.00;0.70;;;;;;;9.78;91.63;95697.59;5071425;28;20492;-59
2023/01/15 03:51:34;;;;;;;0.43;0.43;;;;;;;9.77;91.73;95694.16;5071929;28;20278;-58
2023/01/15 03:54:03;;;;;;;0.60;0.60;;;;;;;9.71;92.20;95709.78;5070909;28;20191;-58
2023/01/15 03:56:33;;;;;;;0.80;0.70;;;;;;;9.66;94.02;95710.28;5071384;28;20198;-59
2023/01/15 03:59:02;;;;;;;0.80;0.73;;;;;;;9.66;93.28;95712.91;5070253;28;20635;-59
2023/01/15 04:01:33;;;;;;;0.87;0.70;;;;;;;9.64;94.00;95706.13;5071420;28;20234;-59
2023/01/15 04:04:01;;;;;;;0.67;0.67;;;;;;;9.81;93.21;95703.38;5071237;28;20213;-58
2023/01/15 04:06:30;;;;;;;1.73;1.00;;;;;;;9.77;93.39;95694.16;5070947;28;20203;-60
2023/01/15 04:08:58;;;;;;;1.00;0.70;;;;;;;9.78;93.47;95690.50;5070666;28;20210;-60
2023/01/15 04:11:26;;;;;;;0.60;0.60;;;;;;;9.72;94.02;95682.41;5070955;28;20203;-60
2023/01/15 04:13:53;;;;;;;0.87;0.87;;;;;;;9.62;94.50;95672.00;5071160;28;20285;-60
2023/01/15 04:16:24;;;;;;;0.93;0.93;;;;;;;9.65;94.45;95695.41;5071369;28;20221;-59
2023/01/15 04:18:51;;;;;;;0.80;0.80;;;;;;;9.60;94.68;95681.88;5070761;28;20659;-59
2023/01/15 04:21:17;;;;;;;2.57;0.83;;;;;;;9.57;95.10;95671.63;5071299;28;20206;-60
2023/01/15 04:23:45;;;;;;;0.73;0.73;;;;;;;9.56;95.50;95680.56;5070399;28;20210;-59
2023/01/15 04:26:12;;;;;;;0.47;0.47;;;;;;;9.65;94.61;95671.66;5070106;28;20236;-61
2023/01/15 04:28:40;;;;;;;0.60;0.60;;;;;;;9.74;94.24;95680.44;5070911;28;20222;-61
2023/01/15 04:31:06;;;;;;;0.70;0.63;;;;;;;9.80;93.71;95664.78;5070734;28;20198;-59
2023/01/15 04:33:33;;;;;;;0.77;0.67;;;;;;;9.75;94.25;95661.78;5070605;28;20218;-59
2023/01/15 04:36:00;;;;;;;0.90;0.60;;;;;;;9.74;94.55;95677.81;5091836;28;20269;-61
2023/01/15 04:38:26;;;;;;;1.03;0.93;;;;;;;9.72;95.21;95671.84;5087200;28;20199;-59
2023/01/15 04:46:23;;;;;;;1.77;1.67;;;;;;;9.86;94.80;95672.03;5070953;28;20842;-61
2023/01/15 04:48:49;;;;;;;1.10;1.10;;;;;;;9.87;94.80;95680.81;5070781;28;20196;-59
2023/01/15 04:51:16;;;;;;;1.70;0.93;;;;;;;9.89;95.37;95665.59;5072900;28;20217;-61
2023/01/15 04:53:43;;;;;;;1.20;1.10;;;;;;;9.95;95.50;95662.34;5075087;28;20229;-59
2023/01/15 04:56:11;;;;;;;0.83;0.73;;;;;;;9.94;95.24;95658.03;5074298;28;20213;-59
2023/01/15 04:58:37;;;;;;;0.73;0.73;;;;;;;9.91;95.81;95653.91;5074921;28;20207;-59
2023/01/15 05:01:08;;;;;;;0.60;0.60;;;;;;;9.92;95.62;95665.28;5073513;28;20248;-60
2023/01/15 05:03:35;;;;;;;1.03;0.70;;;;;;;9.89;96.34;95666.44;5075297;28;20213;-60
2023/01/15 05:06:01;;;;;;;0.53;0.53;;;;;;;9.91;96.30;95659.19;5074512;28;20213;-60
2023/01/15 05:08:28;;;;;;;1.00;1.00;;;;;;;9.96;96.06;95656.88;5074444;28;20190;-61
2023/01/15 05:10:55;;;;;;;0.70;0.67;;;;;;;9.97;95.26;95652.41;5074321;28;20217;-60
2023/01/15 05:13:23;;;;;;;0.50;0.50;;;;;;;9.99;95.10;95658.34;5073977;28;20222;-60
2023/01/15 05:15:49;;;;;;;1.17;0.90;;;;;;;9.99;96.46;95651.25;5073577;28;20207;-59
2023/01/15 05:18:15;;;;;;;0.43;0.43;;;;;;;10.02;95.37;95658.84;5074643;28;20214;-61
2023/01/15 05:20:42;;;;;;;1.97;0.90;;;;;;;10.03;94.66;95654.41;5074435;28;20221;-58
2023/01/15 05:23:08;;;;;;;0.70;0.70;;;;;;;10.05;94.20;95648.97;5074717;28;20210;-59
2023/01/15 05:25:36;;;;;;;0.77;0.77;;;;;;;10.05;94.23;95648.97;5073703;28;20210;-60
2023/01/15 05:28:03;;;;;;;1.03;0.93;;;;;;;10.07;92.96;95647.81;5074117;28;20230;-59
2023/01/15 05:30:30;;;;;;;0.93;0.93;;;;;;;10.06;92.87;95640.88;5074027;28;20198;-61
2023/01/15 05:32:57;;;;;;;1.00;0.80;;;;;;;10.11;91.89;95640.38;5073710;28;20226;-58
2023/01/15 05:35:23;;;;;;;1.73;0.97;;;;;;;10.09;91.31;95626.53;5073346;28;20202;-59
2023/01/15 05:37:50;;;;;;;0.90;0.90;;;;;;;10.08;92.00;95627.50;5073522;28;20538;-58
2023/01/15 05:40:17;;;;;;;1.13;1.03;;;;;;;10.04;93.08;95620.91;5073340;28;20202;-58
2023/01/15 05:42:43;;;;;;;1.67;1.20;;;;;;;10.04;93.83;95623.53;5073850;28;20218;-61
2023/01/15 05:45:10;;;;;;;0.83;0.83;;;;;;;10.06;93.67;95611.00;5073320;28;20301;-59
2023/01/15 05:47:38;;;;;;;0.90;0.90;;;;;;;10.07;93.08;95626.69;5074038;28;20206;-59
2023/01/15 05:50:05;;;;;;;0.97;0.97;;;;;;;10.07;93.25;95631.97;5073190;28;20553;-61
2023/01/15 05:52:32;;;;;;;1.17;1.07;;;;;;;10.12;93.05;95619.09;5073636;28;20223;-60
2023/01/15 05:55:00;;;;;;;0.60;0.60;;;;;;;10.06;93.71;95621.56;5072643;28;20206;-61
2023/01/15 05:57:27;;;;;;;1.70;1.53;;;;;;;10.08;94.20;95614.28;5073314;28;20684;-60
2023/01/15 05:59:55;;;;;;;1.60;1.50;;;;;;;10.11;94.02;95621.88;5073169;28;20198;-60
2023/01/15 06:02:21;;;;;;;0.97;0.97;;;;;;;10.15;94.23;95625.88;5073055;28;20317;-60
2023/01/15 06:04:49;;;;;;;2.10;1.90;;;;;;;10.16;95.21;95619.63;5073119;28;20207;-60
2023/01/15 06:07:16;;;;;;;0.70;0.70;;;;;;;10.32;94.29;95619.59;5073014;28;20198;-59
2023/01/15 06:09:43;;;;;;;1.00;1.00;;;;;;;10.30;94.49;95630.34;5071524;28;20199;-60
2023/01/15 06:12:09;;;;;;;0.77;0.77;;;;;;;10.34;94.03;95613.19;5072804;28;20654;-61
2023/01/15 06:14:36;;;;;;;0.80;0.60;;;;;;;10.39;94.44;95623.22;5073167;28;20202;-59
2023/01/15 06:17:03;;;;;;;0.50;0.50;;;;;;;10.35;94.75;95620.09;5073337;28;20209;-60
2023/01/15 06:19:29;;;;;;;0.63;0.63;;;;;;;10.37;95.29;95627.88;5072668;28;20646;-59
2023/01/15 06:21:57;;;;;;;1.27;0.77;;;;;;;10.43;95.95;95633.31;5073403;28;20210;-58
2023/01/15 06:24:24;;;;;;;0.57;0.57;;;;;;;10.41;96.40;95619.44;5072684;28;20199;-60
2023/01/15 06:26:50;;;;;;;1.80;1.70;;;;;;;10.41;96.96;95618.63;5073272;28;20217;-61
2023/01/15 06:29:19;;;;;;;0.90;0.80;;;;;;;10.35;99.20;95613.97;5072779;28;20202;-60
2023/01/15 06:31:45;;;;;;;1.50;1.40;;;;;;;10.36;98.97;95607.72;5073244;28;20734;-60
2023/01/15 06:34:12;;;;;;;0.63;0.63;;;;;;;10.43;98.92;95606.88;5072851;28;20226;-60
2023/01/15 06:36:39;;;;;;;0.53;0.53;;;;;;;10.42;98.90;95596.47;5072748;28;20202;-59
2023/01/15 06:39:09;;;;;;;0.67;0.67;;;;;;;10.44;98.68;95597.97;5071332;28;20207;-59
2023/01/15 06:47:21;;;;;;;1.10;1.10;;;;;;;10.45;98.45;95591.66;5071930;28;20201;-59
2023/01/15 06:49:48;;;;;;;0.90;0.90;;;;;;;10.41;98.79;95578.97;5072811;28;20516;-59
2023/01/15 06:52:14;;;;;;;0.40;0.40;;;;;;;10.40;99.36;95574.69;5072322;28;20206;-60
2023/01/15 06:54:42;;;;;;;0.60;0.60;;;;;;;10.39;98.98;95575.66;5071674;28;20279;-60
2023/01/15 06:57:09;;;;;;;0.97;0.50;;;;;;;10.34;99.30;95589.41;5072073;28;21346;-59
2023/01/15 06:59:35;;;;;;;0.77;0.67;;;;;;;10.36;100.00;95583.94;5071782;28;20202;-60
2023/01/15 07:02:02;;;;;;;0.90;0.50;;;;;;;10.38;99.00;95582.75;5071715;28;20287;-60
2023/01/15 07:04:28;;;;;;;0.80;0.80;;;;;;;10.35;98.79;95576.97;5076664;28;20214;-61
2023/01/15 07:06:55;;;;;;;0.93;0.60;;;;;;;10.31;98.55;95580.94;5095412;28;20242;-62
2023/01/15 07:09:21;;;;;;;0.83;0.70;;;;;;;10.31;98.71;95575.66;5088984;28;20203;-61
2023/01/15 07:11:49;;;;;;;0.53;0.50;;;;;;;10.20;98.85;95590.03;5085064;28;20651;-59
2023/01/15 07:14:17;;;;;;;1.03;0.60;;;;;;;10.22;98.97;95585.44;5074722;28;20218;-60
2023/01/15 07:16:43;;;;;;;0.67;0.67;;;;;;;10.17;99.53;95586.91;5073263;28;20213;-58
2023/01/15 07:19:10;;;;;;;0.90;0.90;;;;;;;10.13;99.83;95594.31;5072457;28;20584;-59
2023/01/15 07:21:36;;;;;;;0.40;0.40;;;;;;;10.10;99.70;95585.88;5072606;28;20520;-61
2023/01/15 07:24:03;;;;;;;0.43;0.43;;;;;;;10.12;99.72;95576.00;5072095;28;20206;-61
2023/01/15 07:26:30;;;;;;;1.03;0.60;;;;;;;10.12;99.97;95586.56;5071972;28;20627;-61
2023/01/15 07:28:58;;;;;;;1.27;0.70;;;;;;;10.08;99.80;95569.41;5071883;28;20507;-61
2023/01/15 07:31:24;;;;;;;0.60;0.60;;;;;;;10.05;100.00;95572.38;5071422;28;20233;-61
2023/01/15 07:33:51;;;;;;;0.60;0.60;;;;;;;10.06;100.00;95566.09;5071977;28;20317;-60
2023/01/15 07:36:17;;;;;;;0.40;0.40;;;;;;;10.07;100.00;95573.84;5071548;28;20210;-59
2023/01/15 07:38:44;;;;;;;0.67;0.57;;;;;;;10.08;100.00;95564.94;5071079;28;20198;-60
2023/01/15 07:52:08;;;;;;;0.67;0.67;;;;;;;10.15;100.00;95558.03;5071186;28;20213;-60
2023/01/15 07:54:34;;;;;;;1.30;0.80;;;;;;;10.17;99.99;95568.41;5071289;28;20246;-61
2023/01/15 07:57:00;;;;;;;0.50;0.50;;;;;;;10.16;100.00;95561.50;5071654;28;20214;-60
2023/01/15 07:59:27;;;;;;;0.50;0.50;;;;;;;10.22;100.00;95571.41;5073285;28;20214;-59
2023/01/15 08:01:55;;;;;;;0.50;0.50;;;;;;;10.23;99.89;95578.34;5072036;28;20387;-60
2023/01/15 08:04:23;;;;;;;0.30;0.30;;;;;;;10.30;99.15;95587.25;5072399;28;20198;-59
2023/01/15 08:06:49;;;;;;;0.40;0.40;;;;;;;10.28;99.19;95582.13;5072911;28;20206;-60
2023/01/15 08:09:16;;;;;;;0.47;0.30;;;;;;;10.28;99.53;95586.56;5073364;28;20203;-59
2023/01/15 08:17:11;;;;;;;0.50;0.50;;;;;;;10.33;99.73;95611.53;5071684;28;20280;-59
2023/01/15 08:19:38;;;;;;;0.57;0.57;;;;;;;10.32;99.58;95631.00;5071650;28;20217;-60
2023/01/15 08:22:04;;;;;;;0.43;0.37;;;;;;;10.35;99.67;95619.25;5071897;28;20303;-60
2023/01/15 08:24:31;;;;;;;0.40;0.40;;;;;;;10.41;99.42;95630.03;5071203;28;20190;-59
2023/01/15 08:26:57;;;;;;;1.47;0.70;;;;;;;10.49;99.26;95645.84;5072023;28;20669;-60
2023/01/15 08:29:24;;;;;;;0.50;0.50;;;;;;;10.47;98.94;95644.38;5071177;28;20210;-59
2023/01/15 08:31:50;;;;;;;0.50;0.50;;;;;;;10.48;98.12;95667.19;5071817;28;20199;-59
2023/01/15 08:34:18;;;;;;;0.20;0.10;;;;;;;10.25;97.13;95682.84;5071482;28;20227;-61
2023/01/15 08:36:45;;;;;;;0.10;0.10;;;;;;;10.02;97.85;95675.72;5071390;28;20226;-59
2023/01/15 08:39:11;;;;;;;0.10;0.10;;;;;;;9.69;98.07;95686.19;5070687;28;21416;-60
2023/01/15 08:41:38;;;;;;;0.20;0.20;;;;;;;9.49;98.85;95700.66;5071744;28;20202;-59
2023/01/15 08:44:05;;;;;;;1.23;0.20;;;;;;;9.33;99.52;95705.84;5073675;28;20524;-59
2023/01/15 08:46:32;;;;;;;1.03;0.10;;;;;;;9.17;99.08;95721.63;5071773;28;20242;-60
2023/01/15 08:48:59;;;;;;;0.00;0.00;;;;;;;8.94;100.00;95735.31;5080820;28;20212;-61
2023/01/15 08:51:27;;;;;;;0.17;0.10;;;;;;;8.73;100.00;95742.75;5081061;28;20206;-58
2023/01/15 08:53:54;;;;;;;0.20;0.10;;;;;;;8.48;100.00;95744.38;5083657;28;20226;-61
2023/01/15 08:56:20;;;;;;;0.10;0.10;;;;;;;8.25;100.00;95766.03;5084604;28;20201;-59
2023/01/15 08:58:47;;;;;;;0.10;0.10;;;;;;;8.09;100.00;95761.41;5082122;28;20221;-60
2023/01/15 09:01:14;;;;;;;0.33;0.13;;;;;;;7.97;100.00;95787.13;5081822;28;20242;-58
2023/01/15 09:03:42;;;;;;;0.10;0.10;;;;;;;7.85;100.00;95800.66;5077380;28;20198;-60
2023/01/15 09:06:09;;;;;;;0.30;0.10;;;;;;;7.65;100.00;95809.63;5071098;28;20202;-60
2023/01/15 09:08:38;;;;;;;0.67;0.27;;;;;;;7.51;100.00;95813.53;5070841;28;20217;-60
2023/01/15 09:11:06;;;;;;;0.10;0.10;;;;;;;7.46;100.00;95821.03;5070730;28;20213;-61
2023/01/15 09:13:33;;;;;;;0.00;0.00;;;;;;;7.25;100.00;95829.13;5070523;28;20682;-60
2023/01/15 09:15:59;;;;;;;0.10;0.10;;;;;;;7.11;100.00;95831.38;5070475;28;20631;-61
2023/01/15 09:18:26;;;;;;;0.40;0.10;;;;;;;7.06;100.00;95831.81;5071027;28;20210;-59
2023/01/15 09:20:53;;;;;;;0.33;0.20;;;;;;;6.99;100.00;95831.53;5070772;28;20305;-58
2023/01/15 09:23:20;;;;;;;0.20;0.20;;;;;;;7.04;100.00;95846.06;5070576;28;20764;-60
2023/01/15 09:25:54;;;;;;;10.03;0.50;;;;;;;7.06;100.00;95841.47;5070107;28;20218;-60
2023/01/15 09:28:21;;;;;;;1.33;0.17;;;;;;;6.94;100.00;95846.88;5070822;28;20194;-61
2023/01/15 09:30:48;;;;;;;0.70;0.27;;;;;;;6.96;100.00;95847.59;5069763;28;20211;-59
2023/01/15 09:33:14;;;;;;;0.10;0.10;;;;;;;6.93;100.00;95865.44;5070977;28;20218;-60
2023/01/15 09:35:41;;;;;;;0.13;0.10;;;;;;;6.88;100.00;95876.38;5079858;28;20198;-62
2023/01/15 09:38:11;;;;;;;0.10;0.10;;;;;;;6.83;100.00;95875.97;5096749;28;20216;-60
2023/01/15 09:40:46;;;;;;;0.93;0.30;;;;;;;6.72;100.00;95893.66;5097867;28;20214;-62
2023/01/15 09:43:24;;;;;;;0.63;0.20;;;;;;;6.65;100.00;95905.69;5086493;28;20221;-59
2023/01/15 09:45:54;;;;;;;0.10;0.10;;;;;;;6.63;100.00;95903.19;5086436;28;20261;-61
2023/01/15 09:48:29;;;;;;;0.10;0.10;;;;;;;6.51;100.00;95906.91;5080904;28;20293;-59
2023/01/15 09:51:03;;;;;;;0.00;0.00;;;;;;;6.46;100.00;95915.19;5076258;28;20206;-60
2023/01/15 09:53:41;;;;;;;0.27;0.17;;;;;;;6.41;100.00;95916.59;5073977;28;20301;-61
2023/01/15 09:56:14;;;;;;;0.83;0.10;;;;;;;6.36;100.00;95929.28;5074132;28;20209;-60
2023/01/15 09:58:42;;;;;;;0.47;0.20;;;;;;;6.38;100.00;95935.22;5075237;28;20652;-59
2023/01/15 10:01:15;;;;;;;1.03;0.93;;;;;;;6.39;100.00;95934.25;5074161;28;20253;-61
2023/01/15 10:03:44;;;;;;;0.20;0.20;;;;;;;6.34;100.00;95936.47;5075020;28;20199;-64
2023/01/15 10:06:15;;;;;;;0.17;0.13;;;;;;;6.38;100.00;95943.09;5074536;28;20221;-62
2023/01/15 10:08:44;;;;;;;1.50;0.10;;;;;;;6.28;100.00;95952.72;5074998;28;20218;-61
2023/01/15 10:12:33;;;;;;;0.20;0.20;;;;;;;6.27;100.00;95953.72;5075416;28;20203;-61
2023/01/15 10:14:14;;;;;;;0.30;0.30;;;;;;;6.21;100.00;95962.09;5074055;28;20233;-60
2023/01/15 10:16:41;;;;;;;0.17;0.17;;;;;;;6.20;100.00;95966.53;5073742;28;20621;-60
2023/01/15 10:19:08;;;;;;;0.47;0.20;;;;;;;6.14;100.00;95968.84;5074373;28;20218;-60
2023/01/15 10:21:40;;;;;;;0.20;0.20;;;;;;;6.13;100.00;95960.13;5073756;28;20225;-59
2023/01/15 10:24:08;;;;;;;0.13;0.13;;;;;;;6.02;100.00;95967.31;5072798;28;20202;-60
2023/01/15 10:26:38;;;;;;;0.20;0.20;;;;;;;5.99;100.00;95971.00;5073052;28;20221;-59
2023/01/15 10:29:12;;;;;;;0.20;0.20;;;;;;;5.98;100.00;95991.19;5073219;28;20279;-60
2023/01/15 10:31:49;;;;;;;0.20;0.20;;;;;;;6.02;100.00;95993.53;5072853;28;20205;-60
2023/01/15 10:34:51;;;;;;;0.10;0.10;;;;;;;5.99;100.00;96002.47;5072985;28;20214;-59
2023/01/15 10:37:22;;;;;;;0.20;0.20;;;;;;;6.10;100.00;96012.06;5072717;28;20210;-61
2023/01/15 10:39:55;;;;;;;0.00;0.00;;;;;;;6.08;100.00;96019.25;5072622;28;20191;-60
2023/01/15 10:42:32;;;;;;;0.50;0.20;;;;;;;6.02;100.00;96038.16;5073005;28;20202;-60
2023/01/15 10:45:04;;;;;;;0.10;0.10;;;;;;;6.00;100.00;96039.13;5073166;28;20213;-59
2023/01/15 10:47:34;;;;;;;0.00;0.00;;;;;;;6.02;100.00;96061.78;5072869;28;20190;-62
2023/01/15 10:50:02;;;;;;;0.10;0.10;;;;;;;5.92;100.00;96070.41;5072476;28;20538;-60
2023/01/15 10:52:33;;;;;;;0.10;0.10;;;;;;;5.92;100.00;96069.56;5072945;28;20289;-59
2023/01/15 10:55:04;;;;;;;0.23;0.13;;;;;;;5.95;100.00;96079.84;5072155;28;20547;-60
2023/01/15 10:57:41;;;;;;;0.20;0.10;;;;;;;5.85;100.00;96092.84;5073387;28;20205;-61
2023/01/15 11:00:11;;;;;;;0.60;0.60;;;;;;;5.89;100.00;96094.28;5072683;28;20285;-60
2023/01/15 11:02:41;;;;;;;0.10;0.10;;;;;;;5.86;100.00;96089.28;5071986;28;20292;-60
2023/01/15 11:05:12;;;;;;;0.47;0.20;;;;;;;5.80;100.00;96102.91;5071672;28;20207;-59
2023/01/15 11:07:41;;;;;;;0.20;0.20;;;;;;;5.66;100.00;96103.22;5072482;28;20536;-59
2023/01/15 11:10:14;;;;;;;0.10;0.10;;;;;;;5.64;100.00;96112.97;5072058;28;20197;-58
2023/01/15 11:20:58;;;;;;;0.30;0.30;;;;;;;5.59;100.00;96167.63;5071383;28;20232;-59
2023/01/15 11:23:24;;;;;;;0.33;0.20;;;;;;;5.61;100.00;96167.47;5072162;28;20202;-59
2023/01/15 11:25:52;;;;;;;1.40;0.20;;;;;;;5.50;100.00;96171.81;5071060;28;20202;-59
2023/01/15 11:28:29;;;;;;;0.20;0.20;;;;;;;5.48;100.00;96172.88;5071683;28;20198;-60
2023/01/15 11:30:58;;;;;;;0.30;0.30;;;;;;;5.53;100.00;96191.69;5071335;28;20190;-59
2023/01/15 11:33:26;;;;;;;0.30;0.30;;;;;;;5.48;100.00;96184.22;5071559;28;20631;-59
2023/01/15 11:35:57;;;;;;;0.50;0.50;;;;;;;5.42;100.00;96191.75;5071296;28;20218;-58
2023/01/15 11:38:24;;;;;;;0.30;0.30;;;;;;;5.37;100.00;96191.25;5072068;28;20644;-58
2023/01/15 11:40:55;;;;;;;0.20;0.20;;;;;;;5.37;100.00;96196.50;5070274;28;20764;-57
2023/01/15 11:51:52;;;;;;;0.30;0.30;;;;;;;5.12;100.00;96226.44;5071936;28;20274;-58
2023/01/15 11:54:19;;;;;;;0.10;0.10;;;;;;;5.06;100.00;96223.47;5069916;28;20230;-58
2023/01/15 11:56:47;;;;;;;0.30;0.30;;;;;;;5.05;100.00;96230.50;5070789;28;20209;-59
2023/01/15 11:59:16;;;;;;;1.43;1.00;;;;;;;5.05;100.00;96235.75;5070905;28;20214;-59
2023/01/15 12:01:53;;;;;;;0.20;0.20;;;;;;;5.05;100.00;96240.16;5070878;28;20226;-58
2023/01/15 12:04:25;;;;;;;0.20;0.20;;;;;;;5.03;100.00;96246.31;5078061;28;20189;-59
2023/01/15 12:06:52;;;;;;;0.20;0.20;;;;;;;5.01;100.00;96250.03;5095170;28;20206;-59
2023/01/15 12:09:26;;;;;;;0.23;0.23;;;;;;;4.97;100.00;96256.44;5094490;28;20220;-58
2023/01/15 12:12:02;;;;;;;0.20;0.20;;;;;;;5.13;100.00;96269.22;5087987;28;20642;-59
2023/01/15 12:14:44;;;;;;;0.50;0.40;;;;;;;5.19;100.00;96261.72;5073931;28;20228;-60
2023/01/15 12:17:24;;;;;;;0.40;0.40;;;;;;;5.14;100.00;96278.72;5072017;28;20201;-60
2023/01/15 12:19:55;;;;;;;0.33;0.33;;;;;;;5.08;100.00;96282.66;5072679;28;20198;-58
2023/01/15 12:22:32;;;;;;;0.20;0.20;;;;;;;5.04;100.00;96273.38;5073961;28;20195;-59
2023/01/15 12:25:07;;;;;;;0.23;0.23;;;;;;;4.98;100.00;96285.16;5070371;28;20198;-58
2023/01/15 12:27:56;;;;;;;0.07;0.07;;;;;;;4.90;100.00;96286.69;5072177;28;20194;-61
2023/01/15 12:30:29;;;;;;;0.43;0.20;;;;;;;4.76;100.00;96290.38;5067480;28;20218;-60
2023/01/15 12:33:17;;;;;;;0.20;0.20;;;;;;;4.76;100.00;96279.91;5071480;28;20194;-59
2023/01/15 12:35:50;;;;;;;0.20;0.20;;;;;;;4.75;100.00;96288.69;5071228;28;20698;-61